Labrea, Brazil
Current Conditions -  °F | °C
As of 9:00 AM on Monday 20 Oct 2014 (Local Time) from SBPV Reporting Station
Clear Clear  
Wind Chill: 81°   Ceiling: Unl
Heat Index: 85°   Visibility: 6mi
Dew Point: 72°   Wind: 3mph
Humidity: 74%   Direction: 130°SE
Pressure: 29.94"   Gusts: NA
Location:  7.26°S, 64.81°W
Report Text: SBPV 201300Z 13003KT CAVOK 27/22 Q1014
Loading
Personal Weather Stations






























Interactive Weather Map
Tropical Storm Tracking
New forecast layout! Learn more

10-Day Weather Forecast

Advertisements
Track Severe Weather on mobile